createdAt,value
2024-04-05T00:01:30.169Z,15.7
2024-04-05T00:06:30.184Z,15.61
2024-04-05T00:11:30.185Z,15.64
2024-04-05T00:16:30.174Z,15.68
2024-04-05T00:21:30.188Z,15.7
2024-04-05T00:26:30.176Z,15.71
2024-04-05T00:31:30.191Z,15.58
2024-04-05T00:36:30.192Z,15.61
2024-04-05T00:41:30.194Z,15.57
2024-04-05T00:46:30.194Z,15.35
2024-04-05T00:51:30.184Z,15.5
2024-04-05T00:56:30.240Z,15.32
2024-04-05T01:06:30.265Z,15.21
2024-04-05T01:11:30.202Z,15.16
2024-04-05T01:16:30.204Z,15.24
2024-04-05T01:21:30.205Z,15.37
2024-04-05T01:26:30.194Z,15.49
2024-04-05T01:31:30.208Z,15.46
2024-04-05T01:36:30.194Z,15.47
2024-04-05T01:41:39.470Z,15.61
2024-04-05T01:46:30.212Z,15.6
2024-04-05T01:51:30.201Z,15.44
2024-04-05T01:56:30.215Z,15.47
2024-04-05T02:01:30.203Z,15.47
2024-04-05T02:06:30.218Z,15.46
2024-04-05T02:11:30.219Z,15.52
2024-04-05T02:16:30.221Z,15.64
2024-04-05T02:21:30.222Z,15.69
2024-04-05T02:26:30.211Z,15.69
2024-04-05T02:31:30.224Z,15.64
2024-04-05T02:36:30.213Z,15.76
2024-04-05T02:41:30.228Z,15.77
2024-04-05T02:46:30.230Z,15.75
2024-04-05T02:51:30.218Z,15.78
2024-04-05T02:56:30.232Z,15.77
2024-04-05T03:01:30.221Z,15.69
2024-04-05T03:06:30.234Z,15.64
2024-04-05T03:11:30.237Z,15.74
2024-04-05T03:16:30.238Z,15.78
2024-04-05T03:21:30.240Z,15.72
2024-04-05T03:26:30.228Z,15.59
2024-04-05T03:31:30.243Z,15.59
2024-04-05T03:36:30.231Z,15.69
2024-04-05T03:41:30.252Z,15.78
2024-04-05T03:46:30.246Z,15.73
2024-04-05T03:51:30.248Z,15.68
2024-04-05T03:56:30.250Z,15.52
2024-04-05T04:01:30.238Z,15.59
2024-04-05T04:06:30.253Z,15.43
2024-04-05T04:11:30.240Z,15.36
2024-04-05T04:16:30.256Z,15.45
2024-04-05T04:21:30.256Z,15.35
2024-04-05T04:26:30.246Z,15.29
2024-04-05T04:31:30.259Z,15.27
2024-04-05T04:36:30.248Z,15.3
2024-04-05T04:41:30.262Z,15.18
2024-04-05T04:46:30.264Z,15.02
2024-04-05T04:51:30.265Z,14.96
2024-04-05T04:56:30.267Z,15.08
2024-04-05T05:01:30.253Z,14.91
2024-04-05T05:06:30.270Z,14.73
2024-04-05T05:11:30.258Z,14.81
2024-04-05T05:16:30.271Z,14.97
2024-04-05T05:21:30.274Z,14.97
2024-04-05T05:26:30.262Z,14.98
2024-04-05T05:31:30.277Z,15.05
2024-04-05T05:36:30.277Z,14.97
2024-04-05T05:41:30.279Z,15.02
2024-04-05T05:46:30.267Z,15.19
2024-04-05T05:51:30.282Z,15.35
2024-04-05T05:56:30.283Z,15.35
2024-04-05T06:01:30.272Z,15.6
2024-04-05T06:06:30.287Z,15.44
2024-04-05T06:11:30.274Z,15.37
2024-04-05T06:16:30.289Z,15.46
2024-04-05T06:21:30.290Z,15.42
2024-04-05T06:26:30.292Z,15.49
2024-04-05T06:31:30.295Z,15.87
2024-04-05T06:36:30.282Z,16.31
2024-04-05T06:41:30.296Z,16.54
2024-04-05T06:46:30.285Z,16.62
2024-04-05T06:51:30.299Z,16.45
2024-04-05T06:56:30.301Z,16.64
2024-04-05T07:01:30.290Z,16.98
2024-04-05T07:06:30.304Z,17.43
2024-04-05T07:11:30.292Z,18.09
2024-04-05T07:16:30.307Z,18.4
2024-04-05T07:21:30.308Z,18.66
2024-04-05T07:26:30.311Z,19.1
2024-04-05T07:31:30.336Z,19.7
2024-04-05T07:36:30.301Z,20.35
2024-04-05T07:41:30.317Z,20.91
2024-04-05T07:46:30.304Z,22.18
2024-04-05T07:51:30.320Z,24.69
2024-04-05T07:56:30.322Z,26.51
2024-04-05T08:01:30.364Z,29.61
2024-04-05T08:06:30.326Z,30.8
2024-04-05T08:11:30.316Z,29.12
2024-04-05T08:16:30.331Z,28.64
2024-04-05T08:21:30.320Z,28.06
2024-04-05T08:26:30.335Z,29.64
2024-04-05T08:31:30.338Z,33.08
2024-04-05T08:36:30.327Z,34.34
2024-04-05T08:41:30.343Z,37.46
2024-04-05T08:46:30.332Z,35.82
2024-04-05T08:51:30.348Z,36.23
2024-04-05T08:56:30.351Z,36.75
2024-04-05T09:01:30.353Z,37.52
2024-04-05T09:06:30.357Z,35.91
2024-04-05T09:11:30.346Z,34.66
2024-04-05T09:16:30.361Z,35.98
2024-04-05T09:21:39.607Z,37.83
2024-04-05T09:26:30.367Z,40.21
2024-04-05T09:31:30.370Z,39.18
2024-04-05T09:36:30.360Z,38.5
2024-04-05T09:41:30.375Z,36.32
2024-04-05T09:46:30.365Z,38.09
2024-04-05T09:51:30.381Z,36.86
2024-04-05T09:56:30.384Z,35.91
2024-04-05T10:01:30.387Z,37.96
2024-04-05T10:06:30.389Z,36.18
2024-04-05T10:11:30.379Z,35.68
2024-04-05T10:16:30.437Z,36.66
2024-04-05T10:21:30.384Z,34
2024-04-05T10:26:30.401Z,34
2024-04-05T10:31:30.403Z,35.13
2024-04-05T10:36:30.406Z,35.37
2024-04-05T10:41:30.409Z,35.54
2024-04-05T10:46:30.399Z,34.77
2024-04-05T10:51:30.415Z,35.79
2024-04-05T10:56:30.404Z,35.99
2024-04-05T11:01:34.926Z,35.16
2024-04-05T11:06:30.423Z,34.38
2024-04-05T11:11:30.413Z,33.43
2024-04-05T11:16:30.429Z,33.41
2024-04-05T11:21:30.418Z,33.21
2024-04-05T11:26:30.434Z,34.25
2024-04-05T11:31:30.437Z,33.09
2024-04-05T11:36:30.440Z,32.86
2024-04-05T11:41:30.443Z,31.47
2024-04-05T11:46:30.433Z,31.43
2024-04-05T11:51:30.447Z,30.11
2024-04-05T11:56:30.438Z,30.74
2024-04-05T12:01:40.896Z,30.44
2024-04-05T12:06:30.457Z,30.24
2024-04-05T12:11:30.447Z,30.06
2024-04-05T12:16:30.462Z,29.89
2024-04-05T12:21:30.451Z,29.58
2024-04-05T12:26:30.468Z,30.35
2024-04-05T12:31:30.469Z,30.8
2024-04-05T12:36:30.473Z,29.45
2024-04-05T12:41:30.476Z,29.27
2024-04-05T12:46:30.466Z,29.37
2024-04-05T12:51:30.482Z,28.89
2024-04-05T12:56:30.470Z,28.27
2024-04-05T13:01:38.678Z,27.65
2024-04-05T13:06:30.488Z,27.5
2024-04-05T13:11:30.492Z,27.05
2024-04-05T13:16:30.495Z,26.96
2024-04-05T13:21:30.484Z,26.65
2024-04-05T13:26:30.499Z,26.34
2024-04-05T13:31:30.488Z,26.39
2024-04-05T13:36:30.504Z,26.54
2024-04-05T13:41:30.506Z,26.73
2024-04-05T13:46:30.496Z,26.8
2024-04-05T13:51:30.511Z,26.72
2024-04-05T13:56:30.500Z,26.47
2024-04-05T14:01:38.751Z,26.52
2024-04-05T14:06:30.519Z,26.51
2024-04-05T14:11:38.756Z,26.61
2024-04-05T14:16:30.525Z,26.63
2024-04-05T14:21:30.514Z,26.17
2024-04-05T14:26:30.529Z,26.02
2024-04-05T14:31:30.518Z,26.21
2024-04-05T14:36:30.534Z,26.54
2024-04-05T14:41:30.535Z,27.77
2024-04-05T14:46:30.526Z,29.01
2024-04-05T14:51:30.542Z,28.65
2024-04-05T14:56:30.530Z,29.14
2024-04-05T15:01:30.545Z,28.44
2024-04-05T15:06:30.535Z,27.65
2024-04-05T15:11:30.551Z,27.52
2024-04-05T15:16:30.553Z,27.52
2024-04-05T15:21:30.544Z,27.16
2024-04-05T15:26:30.559Z,26.94
2024-04-05T15:31:30.548Z,26.6
2024-04-05T15:36:30.564Z,26.26
2024-04-05T15:41:30.566Z,26.1
2024-04-05T15:46:30.577Z,25.72
2024-04-05T15:51:30.571Z,25.33
2024-04-05T15:56:30.561Z,25.03
2024-04-05T16:01:30.576Z,25.2
2024-04-05T16:06:30.565Z,25.1
2024-04-05T16:11:30.581Z,25.09
2024-04-05T16:16:30.583Z,25
2024-04-05T16:21:30.573Z,24.89
2024-04-05T16:26:30.589Z,24.68
2024-04-05T16:31:30.576Z,24.59
2024-04-05T16:36:30.592Z,24.62
2024-04-05T16:41:30.594Z,24.55
2024-04-05T16:46:30.597Z,24.49
2024-04-05T16:51:30.598Z,24.47
2024-04-05T16:56:30.589Z,24.39
2024-04-05T17:01:39.862Z,24.14
2024-04-05T17:06:30.593Z,23.98
2024-04-05T17:11:30.609Z,23.93
2024-04-05T17:16:30.611Z,23.87
2024-04-05T17:21:30.600Z,23.77
2024-04-05T17:26:30.614Z,23.83
2024-04-05T17:31:30.604Z,23.85
2024-04-05T17:36:30.619Z,23.62
2024-04-05T17:41:30.622Z,23.27
2024-04-05T17:46:30.624Z,23.16
2024-04-05T17:51:30.626Z,22.9
2024-04-05T17:56:30.616Z,22.78
2024-04-05T18:01:30.697Z,22.68
2024-04-05T18:06:30.620Z,22.41
2024-04-05T18:11:30.634Z,22.21
2024-04-05T18:16:30.636Z,21.63
2024-04-05T18:21:30.639Z,21.14
2024-04-05T18:26:30.641Z,21.05
2024-04-05T18:31:30.631Z,21.14
2024-04-05T18:36:30.646Z,20.93
2024-04-05T18:41:30.634Z,20.78
2024-04-05T18:46:30.650Z,20.54
2024-04-05T18:51:30.650Z,20.27
2024-04-05T18:56:30.641Z,19.85
2024-04-05T19:01:30.655Z,19.49
2024-04-05T19:06:30.644Z,19.39
2024-04-05T19:11:30.659Z,19.33
2024-04-05T19:16:30.661Z,19.29
2024-04-05T19:21:30.663Z,19.12
2024-04-05T19:26:30.664Z,19.04
2024-04-05T19:31:30.654Z,19.29
2024-04-05T19:36:30.668Z,19.02
2024-04-05T19:41:30.655Z,19.37
2024-04-05T19:46:30.672Z,19.43
2024-04-05T19:51:30.674Z,19.46
2024-04-05T19:56:30.663Z,19.49
2024-04-05T20:01:30.678Z,19.29
2024-04-05T20:11:30.681Z,19.11
2024-04-05T20:16:30.668Z,19.03
2024-04-05T20:21:30.685Z,18.99
2024-04-05T20:26:30.733Z,18.87
2024-04-05T20:31:30.676Z,18.93
2024-04-05T20:36:30.691Z,18.91
2024-04-05T20:41:30.679Z,18.92
2024-04-05T20:46:30.694Z,19
2024-04-05T20:51:30.696Z,18.85
2024-04-05T20:56:30.698Z,18.62
2024-04-05T21:01:30.699Z,18.37
2024-04-05T21:06:30.689Z,18.34
2024-04-05T21:11:30.703Z,18.14
2024-04-05T21:16:30.692Z,18.02
2024-04-05T21:21:30.707Z,17.86
2024-04-05T21:26:30.708Z,17.83
2024-04-05T21:31:30.697Z,17.62
2024-04-05T21:36:30.712Z,17.52
2024-04-05T21:41:30.700Z,17.28
2024-04-05T21:46:30.714Z,17.24
2024-04-05T21:51:30.716Z,17.27
2024-04-05T21:56:30.719Z,17.34
2024-04-05T22:01:30.720Z,17.43
2024-04-05T22:06:30.709Z,17.53
2024-04-05T22:11:30.766Z,17.61
2024-04-05T22:16:30.710Z,17.56
2024-04-05T22:21:30.726Z,17.52
2024-04-05T22:26:30.728Z,17.5
2024-04-05T22:31:30.730Z,17.4
2024-04-05T22:36:30.732Z,17.41
2024-04-05T22:41:30.721Z,17.46
2024-04-05T22:46:30.735Z,17.45
2024-04-05T22:51:30.724Z,17.33
2024-04-05T22:56:30.739Z,17.43
2024-04-05T23:01:30.740Z,17.46
2024-04-05T23:06:30.729Z,17.45
2024-04-05T23:11:30.744Z,17.46
2024-04-05T23:16:30.732Z,17.54
2024-04-05T23:21:30.747Z,17.54
2024-04-05T23:26:30.749Z,17.51
2024-04-05T23:31:30.750Z,17.42
2024-04-05T23:36:30.751Z,17.32
2024-04-05T23:41:30.741Z,17.35
2024-04-05T23:46:30.754Z,17.54
2024-04-05T23:51:30.744Z,17.65
2024-04-05T23:56:30.759Z,17.57
